Time;durP1;ratioP1;P1;durP2;ratioP2;P2;SDS_P1;SDS_P2;PMS_P1;PMS_P2;Temp;Humidity;BMP_temperature;BMP_pressure;BME280_temperature;BME280_humidity;BME280_pressure;Samples;Min_cycle;Max_cycle;Signal;HPM_P1;HPM_P2
2023/02/05 00:03:18;;;;;;;255.60;70.30;;;;;;;-1.31;100.00;102873.72;5141935;56;1144982;-69
2023/02/05 00:08:26;;;;;;;166.07;51.27;;;;;;;-1.26;100.00;102871.17;5120309;56;1258618;-65
2023/02/05 00:13:31;;;;;;;82.27;25.70;;;;;;;-1.24;100.00;102878.55;5128917;56;1187745;-66
2023/02/05 00:18:37;;;;;;;55.08;18.10;;;;;;;-1.22;100.00;102888.53;5130220;55;1142933;-68
2023/02/05 00:23:42;;;;;;;42.08;13.22;;;;;;;-1.22;100.00;102891.95;5149637;55;1143024;-68
2023/02/05 00:28:48;;;;;;;44.37;13.70;;;;;;;-1.24;100.00;102888.50;5130278;55;1143154;-66
2023/02/05 00:33:55;;;;;;;39.37;11.90;;;;;;;-1.28;100.00;102891.92;5129963;55;1143025;-67
2023/02/05 00:39:00;;;;;;;26.77;8.43;;;;;;;-1.33;100.00;102891.00;5148168;55;1244740;-70
2023/02/05 00:44:07;;;;;;;52.43;17.13;;;;;;;-1.40;100.00;102881.86;5103542;55;1140906;-66
2023/02/05 00:49:13;;;;;;;65.93;20.37;;;;;;;-1.44;100.00;102891.33;5083629;55;1142929;-66
2023/02/05 00:54:19;;;;;;;72.83;25.33;;;;;;;-1.44;100.00;102889.61;5104241;56;1142934;-67
2023/02/05 00:59:24;;;;;;;82.37;25.50;;;;;;;-1.45;100.00;102886.57;5206838;55;1197352;-66
2023/02/05 01:04:31;;;;;;;53.50;18.60;;;;;;;-1.46;100.00;102890.02;5207158;55;1193470;-70
2023/02/05 01:09:37;;;;;;;62.33;20.85;;;;;;;-1.62;100.00;102902.39;5208193;55;1142913;-67
2023/02/05 01:14:43;;;;;;;72.80;23.25;;;;;;;-1.89;100.00;102897.77;5228565;55;1142842;-67
2023/02/05 01:19:49;;;;;;;73.00;24.10;;;;;;;-2.13;100.00;102897.03;5107149;56;1179535;-68
2023/02/05 01:24:54;;;;;;;110.27;32.30;;;;;;;-2.10;100.00;102890.14;5207876;55;1142945;-68
2023/02/05 01:30:00;;;;;;;89.03;25.93;;;;;;;-2.02;100.00;102871.25;5228278;55;1145099;-67
2023/02/05 01:35:07;;;;;;;81.80;21.73;;;;;;;-1.98;100.00;102873.44;5208165;54;1143053;-66
2023/02/05 01:40:18;;;;;;;50.57;14.70;;;;;;;-1.94;100.00;102864.42;5207730;55;1143076;-68
2023/02/05 01:45:31;;;;;;;61.37;19.27;;;;;;;-1.90;100.00;102861.02;5228382;55;1142935;-68
2023/02/05 01:50:47;;;;;;;63.45;19.00;;;;;;;-1.92;100.00;102872.22;5206941;55;1142878;-66
2023/02/05 01:56:06;;;;;;;56.33;18.97;;;;;;;-1.94;100.00;102866.14;5191014;55;1142949;-66
2023/02/05 02:01:12;;;;;;;64.37;19.50;;;;;;;-2.01;100.00;102857.44;5218992;55;1142963;-69
2023/02/05 02:06:18;;;;;;;71.63;20.23;;;;;;;-2.23;100.00;102856.30;5198964;55;1142835;-66
2023/02/05 02:11:26;;;;;;;71.30;19.23;;;;;;;-2.31;100.00;102857.06;5199004;55;1143078;-68
2023/02/05 02:16:34;;;;;;;55.13;16.30;;;;;;;-2.47;100.00;102866.36;5133240;55;1142953;-66
2023/02/05 02:22:05;;;;;;;40.15;11.30;;;;;;;-2.64;100.00;102864.83;5057981;56;1143023;-66
2023/02/05 02:27:40;;;;;;;38.17;12.43;;;;;;;-2.77;100.00;102862.91;5036059;56;1142975;-66
2023/02/05 02:33:07;;;;;;;24.17;8.77;;;;;;;-2.78;100.00;102855.99;5037927;56;1143018;-67
2023/02/05 02:38:41;;;;;;;24.93;10.33;;;;;;;-2.63;100.00;102848.86;5083933;56;1140801;-66
2023/02/05 02:44:06;;;;;;;45.33;19.40;;;;;;;-2.54;100.00;102850.27;4990731;57;1143169;-67
2023/02/05 02:49:19;;;;;;;40.23;11.27;;;;;;;-2.57;100.00;102851.09;5054582;56;1143020;-66
2023/02/05 02:54:27;;;;;;;48.00;14.33;;;;;;;-2.59;100.00;102850.63;5053326;56;1143047;-66
2023/02/05 02:59:36;;;;;;;73.23;25.20;;;;;;;-2.57;100.00;102855.41;5188912;55;1142968;-67
2023/02/05 03:04:58;;;;;;;79.80;23.77;;;;;;;-2.54;100.00;102851.14;5166139;55;1142993;-67
2023/02/05 03:10:20;;;;;;;63.40;19.17;;;;;;;-2.55;100.00;102842.92;5229694;55;1142991;-68
2023/02/05 03:15:27;;;;;;;88.70;24.63;;;;;;;-2.53;100.00;102836.47;5212222;55;1143106;-65
2023/02/05 03:20:38;;;;;;;78.20;20.87;;;;;;;-2.54;100.00;102843.80;5218578;55;1142903;-68
2023/02/05 03:25:44;;;;;;;84.92;24.05;;;;;;;-2.61;100.00;102850.63;5129716;55;1142955;-65
2023/02/05 03:31:13;;;;;;;79.07;23.02;;;;;;;-2.57;100.00;102855.41;5105582;56;1143133;-69
2023/02/05 03:36:44;;;;;;;60.43;17.00;;;;;;;-2.60;100.00;102843.73;5147165;54;1143028;-66
2023/02/05 03:42:03;;;;;;;56.80;20.10;;;;;;;-2.66;100.00;102842.34;5133601;55;1143174;-66
2023/02/05 03:47:22;;;;;;;52.70;16.60;;;;;;;-2.73;100.00;102841.37;5130560;55;1143149;-68
2023/02/05 03:52:37;;;;;;;57.50;16.48;;;;;;;-2.77;100.00;102840.03;5102323;55;1143017;-69
2023/02/05 03:57:57;;;;;;;61.20;16.70;;;;;;;-2.97;100.00;102850.95;5152108;55;1143039;-66
2023/02/05 04:03:04;;;;;;;17.13;6.20;;;;;;;-3.30;100.00;102859.46;5115533;55;1143068;-66
2023/02/05 04:08:10;;;;;;;16.70;5.43;;;;;;;-3.60;100.00;102861.09;5130577;55;1140747;-69
2023/02/05 04:13:18;;;;;;;12.83;5.80;;;;;;;-3.82;100.00;102865.02;5159800;55;1140912;-68
2023/02/05 04:18:25;;;;;;;12.33;5.55;;;;;;;-3.92;100.00;102865.24;5162351;55;1141134;-69
2023/02/05 04:23:32;;;;;;;23.40;7.23;;;;;;;-3.75;100.00;102865.98;5160408;55;1141067;-66
2023/02/05 04:28:39;;;;;;;15.57;6.27;;;;;;;-3.61;100.00;102864.10;5178230;55;1150323;-66
2023/02/05 04:33:45;;;;;;;18.77;6.23;;;;;;;-3.47;100.00;102863.47;5239340;55;1140924;-69
2023/02/05 04:38:52;;;;;;;13.18;6.72;;;;;;;-3.40;100.00;102873.97;5169428;54;1141030;-68
2023/02/05 04:43:58;;;;;;;49.77;15.43;;;;;;;-3.35;100.00;102885.25;4962747;57;1140788;-68
2023/02/05 04:49:04;;;;;;;32.70;9.63;;;;;;;-3.48;100.00;102883.72;5081327;56;1143147;-68
2023/02/05 04:54:11;;;;;;;33.00;10.10;;;;;;;-3.70;100.00;102891.09;5105627;55;1140900;-66
2023/02/05 04:59:17;;;;;;;29.67;10.43;;;;;;;-3.76;100.00;102889.68;5044206;56;1143066;-69
2023/02/05 05:04:23;;;;;;;64.70;21.13;;;;;;;-3.77;100.00;102887.06;5064633;56;1142761;-66
2023/02/05 05:09:28;;;;;;;75.67;23.03;;;;;;;-3.82;100.00;102901.21;5045456;56;1142806;-69
2023/02/05 05:14:36;;;;;;;64.40;19.44;;;;;;;-3.72;100.00;102899.25;5033271;56;1142824;-67
2023/02/05 05:19:42;;;;;;;42.13;13.32;;;;;;;-3.85;100.00;102903.73;5102170;55;1142974;-67
2023/02/05 05:24:48;;;;;;;49.23;15.33;;;;;;;-4.10;100.00;102898.47;5077519;55;1142882;-65
2023/02/05 05:29:54;;;;;;;29.77;10.83;;;;;;;-4.11;100.00;102901.02;5183428;55;1142876;-66
2023/02/05 05:35:00;;;;;;;28.27;9.30;;;;;;;-4.11;100.00;102898.02;5203608;55;1142883;-68
2023/02/05 05:45:30;;;;;;;19.32;5.95;;;;;;;-4.11;100.00;102903.59;5184498;55;1140803;-66
2023/02/05 05:50:36;;;;;;;17.67;7.67;;;;;;;-4.38;100.00;102915.09;5142759;55;1142457;-68
2023/02/05 05:55:42;;;;;;;17.40;6.67;;;;;;;-4.51;100.00;102913.50;5117318;56;1141040;-69
2023/02/05 06:00:49;;;;;;;21.00;5.93;;;;;;;-4.50;100.00;102918.70;4961990;57;1141207;-65
2023/02/05 06:05:54;;;;;;;20.45;7.20;;;;;;;-4.31;100.00;102923.45;4960712;56;1140847;-68
2023/02/05 06:11:01;;;;;;;27.40;11.40;;;;;;;-4.15;100.00;102926.36;4972164;57;1140895;-68
2023/02/05 06:16:07;;;;;;;39.47;14.77;;;;;;;-4.05;100.00;102932.17;4976565;56;1142980;-65
2023/02/05 06:21:14;;;;;;;43.27;16.47;;;;;;;-3.89;100.00;102935.52;5009446;56;1142964;-66
2023/02/05 06:26:20;;;;;;;85.87;29.73;;;;;;;-3.75;100.00;102942.27;5060580;57;1143016;-68
2023/02/05 06:31:25;;;;;;;104.23;28.43;;;;;;;-3.71;100.00;102943.66;5125307;56;1143208;-65
2023/02/05 06:36:31;;;;;;;83.37;22.47;;;;;;;-3.68;100.00;102936.38;5124938;56;1145158;-66
2023/02/05 06:41:37;;;;;;;38.50;12.75;;;;;;;-3.67;100.00;102942.88;5125910;56;1143007;-67
2023/02/05 06:46:43;;;;;;;33.60;12.30;;;;;;;-3.71;100.00;102949.25;5145881;56;1142856;-68
2023/02/05 06:51:49;;;;;;;64.77;20.30;;;;;;;-3.67;100.00;102957.11;4946303;57;1143129;-66
2023/02/05 06:56:55;;;;;;;46.23;15.50;;;;;;;-3.76;100.00;102959.48;5040473;57;1143099;-68
2023/02/05 07:02:01;;;;;;;34.13;14.07;;;;;;;-3.73;100.00;102964.73;5047287;56;1143079;-66
2023/02/05 07:07:08;;;;;;;41.93;14.57;;;;;;;-3.79;100.00;102988.28;5040451;57;1143015;-68
2023/02/05 07:12:14;;;;;;;42.77;15.20;;;;;;;-3.71;100.00;102995.79;4993240;57;1142902;-68
2023/02/05 07:17:20;;;;;;;31.03;12.07;;;;;;;-3.85;100.00;102997.22;5079152;56;1142915;-69
2023/02/05 07:22:26;;;;;;;44.88;15.15;;;;;;;-3.91;100.00;103001.41;5124350;56;1142902;-66
2023/02/05 07:27:32;;;;;;;79.90;22.63;;;;;;;-3.95;100.00;103013.80;5117477;56;1142937;-68
2023/02/05 07:32:37;;;;;;;98.05;30.08;;;;;;;-3.94;100.00;103022.02;5118200;55;1142999;-67
2023/02/05 07:37:43;;;;;;;143.40;48.60;;;;;;;-3.76;100.00;103028.42;5029461;56;1142963;-67
2023/02/05 07:42:49;;;;;;;107.17;43.80;;;;;;;-3.55;100.00;103031.47;5002986;56;1145258;-67
2023/02/05 07:47:55;;;;;;;70.37;29.50;;;;;;;-3.45;100.00;103014.41;4913626;57;1145269;-68
2023/02/05 07:53:01;;;;;;;60.67;27.70;;;;;;;-3.24;100.00;103013.55;5022838;56;1142910;-65
2023/02/05 07:58:06;;;;;;;52.33;22.93;;;;;;;-2.92;100.00;103013.72;4951438;56;1142879;-68
2023/02/05 08:03:12;;;;;;;25.97;10.83;;;;;;;-2.92;100.00;103013.72;4950848;58;1143142;-68
2023/02/05 08:08:18;;;;;;;29.50;12.73;;;;;;;-2.82;100.00;103015.16;4970534;58;1142976;-67
2023/02/05 08:13:24;;;;;;;22.87;10.30;;;;;;;-2.76;100.00;103020.47;4951074;57;1143039;-68
2023/02/05 08:18:30;;;;;;;20.95;9.05;;;;;;;-2.66;100.00;103024.52;4959186;57;1142990;-67
2023/02/05 08:23:36;;;;;;;30.13;9.60;;;;;;;-2.46;100.00;103026.16;4959737;57;1140972;-67
2023/02/05 08:28:42;;;;;;;36.40;13.03;;;;;;;-2.31;100.00;103036.77;4968051;57;1140913;-68
2023/02/05 08:33:49;;;;;;;39.85;15.25;;;;;;;-2.22;100.00;103038.61;4892522;58;1142970;-65
2023/02/05 08:38:56;;;;;;;36.87;16.60;;;;;;;-2.22;100.00;103034.73;4924075;58;1142907;-66
2023/02/05 08:44:01;;;;;;;30.40;13.93;;;;;;;-2.10;100.00;103020.64;4974332;58;1143095;-66
2023/02/05 08:49:07;;;;;;;16.67;6.57;;;;;;;-1.99;100.00;103025.58;5003331;57;1143170;-68
2023/02/05 08:54:14;;;;;;;24.10;9.37;;;;;;;-1.87;100.00;103034.83;4944716;58;1141382;-68
2023/02/05 08:59:20;;;;;;;26.03;11.73;;;;;;;-1.73;100.00;103031.55;4975055;58;1140815;-66
2023/02/05 09:04:26;;;;;;;62.10;27.57;;;;;;;-1.65;100.00;103026.88;4955313;57;1143210;-68
2023/02/05 09:09:34;;;;;;;21.30;10.97;;;;;;;-1.51;100.00;103025.76;5026744;57;1143049;-67
2023/02/05 09:14:40;;;;;;;20.75;9.35;;;;;;;-1.19;100.00;103032.20;5018720;57;1142954;-67
2023/02/05 09:19:46;;;;;;;23.20;9.77;;;;;;;-0.83;100.00;103029.12;5029513;57;1140879;-65
2023/02/05 09:24:52;;;;;;;11.44;7.24;;;;;;;-0.51;100.00;103014.24;4942897;57;1141055;-65
2023/02/05 09:29:58;;;;;;;31.53;12.53;;;;;;;-0.19;100.00;103010.16;5002213;56;1140895;-66
2023/02/05 09:35:04;;;;;;;13.90;6.23;;;;;;;0.07;100.00;103008.12;4992223;56;1142954;-68
2023/02/05 09:40:20;;;;;;;17.53;7.73;;;;;;;0.22;100.00;103010.81;5060435;56;1138885;-65
2023/02/05 09:45:56;;;;;;;11.33;7.50;;;;;;;0.24;100.00;102993.05;4959841;56;1138690;-64
2023/02/05 09:51:03;;;;;;;9.03;4.53;;;;;;;0.24;100.00;102989.57;4999697;57;1138712;-68
2023/02/05 09:56:10;;;;;;;21.17;7.25;;;;;;;0.15;100.00;102994.75;5061564;57;1136838;-68
2023/02/05 10:01:30;;;;;;;28.20;8.80;;;;;;;0.13;100.00;102997.34;4960362;57;1139029;-66
2023/02/05 10:07:02;;;;;;;43.60;11.93;;;;;;;0.09;100.00;102996.88;5013478;57;1138796;-66
2023/02/05 10:12:15;;;;;;;39.37;12.73;;;;;;;0.00;100.00;102995.53;4940478;58;1141049;-65
2023/02/05 10:17:48;;;;;;;21.17;8.50;;;;;;;-0.10;100.00;102988.52;4899700;59;1140884;-65
2023/02/05 10:23:07;;;;;;;15.05;7.70;;;;;;;-0.06;100.00;102975.98;4933848;57;1140717;-65
2023/02/05 10:28:20;;;;;;;27.23;10.63;;;;;;;-0.01;100.00;102986.86;4963659;57;1140786;-65
2023/02/05 10:33:48;;;;;;;14.18;6.85;;;;;;;0.04;100.00;102985.98;5050953;56;1142959;-67
2023/02/05 10:38:57;;;;;;;9.18;5.28;;;;;;;0.03;100.00;102982.95;4947337;57;1138722;-67
2023/02/05 10:44:41;;;;;;;12.30;6.27;;;;;;;-0.10;100.00;102988.52;4960654;57;1136735;-66
2023/02/05 10:49:57;;;;;;;13.62;5.97;;;;;;;-0.16;100.00;102997.61;4894196;57;1140898;-67
2023/02/05 10:55:04;;;;;;;12.40;7.13;;;;;;;-0.06;100.00;102998.96;4979670;57;1140741;-67
2023/02/05 11:00:23;;;;;;;14.03;8.50;;;;;;;0.05;100.00;103000.74;4959951;57;1140758;-64
2023/02/05 11:05:39;;;;;;;17.23;6.70;;;;;;;0.11;100.00;102991.25;4960595;57;1138706;-68
2023/02/05 11:10:49;;;;;;;12.40;7.03;;;;;;;0.15;100.00;102986.52;4927444;56;1138809;-68
2023/02/05 11:16:06;;;;;;;10.48;5.62;;;;;;;0.18;100.00;102985.20;4939080;58;1138818;-67
2023/02/05 11:21:13;;;;;;;12.57;5.93;;;;;;;0.23;100.00;102980.02;4965349;57;1138690;-65
2023/02/05 11:26:24;;;;;;;16.03;6.73;;;;;;;0.27;100.00;102975.28;5040186;56;1138914;-66
2023/02/05 11:31:35;;;;;;;18.65;7.40;;;;;;;0.25;100.00;102972.67;4995371;57;1139031;-68
2023/02/05 11:36:53;;;;;;;15.37;7.87;;;;;;;0.25;100.00;102963.56;5081180;56;1138923;-65
2023/02/05 11:42:02;;;;;;;14.58;7.80;;;;;;;0.28;100.00;102966.18;5042247;57;1138716;-67
2023/02/05 11:47:10;;;;;;;21.83;8.97;;;;;;;0.35;100.00;102957.52;4960034;58;1138993;-67
2023/02/05 11:52:19;;;;;;;16.23;8.67;;;;;;;0.29;100.00;102944.92;4975464;58;1138814;-65
2023/02/05 11:57:40;;;;;;;10.17;5.73;;;;;;;0.23;100.00;102943.59;5041953;57;1138792;-67
2023/02/05 12:02:52;;;;;;;9.55;4.92;;;;;;;0.33;100.00;102950.12;4960409;58;1147828;-65
2023/02/05 12:08:07;;;;;;;13.93;6.25;;;;;;;0.37;100.00;102946.23;4955988;57;1136838;-65
2023/02/05 12:13:42;;;;;;;14.07;6.80;;;;;;;0.43;100.00;102947.14;4974466;57;1138772;-66
2023/02/05 12:19:06;;;;;;;14.00;5.78;;;;;;;0.52;100.00;102955.40;5042269;56;1138957;-66
2023/02/05 12:24:14;;;;;;;;;;;;;;;0.64;100.00;102951.52;4959153;57;1138918;-68
2023/02/05 12:29:30;;;;;;;11.03;5.50;;;;;;;0.75;100.00;102947.22;4989927;56;974088;-66
2023/02/05 12:35:10;;;;;;;11.63;6.87;;;;;;;0.82;100.00;102938.53;5064765;56;1136927;-69
2023/02/05 12:40:45;;;;;;;12.93;5.80;;;;;;;0.90;100.00;102930.75;5014582;56;1138874;-68
2023/02/05 12:46:22;;;;;;;6.70;3.50;;;;;;;0.90;100.00;102925.53;5121690;56;1138997;-66
2023/02/05 12:51:45;;;;;;;9.40;4.33;;;;;;;1.04;100.00;102919.46;5084983;56;1136611;-69
2023/02/05 12:57:05;;;;;;;9.23;4.50;;;;;;;1.42;100.00;102936.80;5090445;56;1136720;-69
2023/02/05 13:02:42;;;;;;;7.63;4.07;;;;;;;1.55;100.00;102934.61;5050444;56;1136808;-69
2023/02/05 13:08:01;;;;;;;5.42;3.17;;;;;;;1.68;100.00;102920.66;5055277;56;1136770;-70
2023/02/05 13:13:11;;;;;;;8.73;3.40;;;;;;;1.90;100.00;102916.27;5056473;56;1136892;-68
2023/02/05 13:18:24;;;;;;;5.17;3.23;;;;;;;2.18;100.00;102907.88;5036597;56;1136900;-66
2023/02/05 13:29:09;;;;;;;14.83;6.10;;;;;;;2.84;100.00;102907.06;5018667;56;1138885;-69
2023/02/05 13:34:17;;;;;;;10.97;5.07;;;;;;;3.08;100.00;102908.16;5053282;56;1139302;-68
2023/02/05 13:39:42;;;;;;;10.93;4.83;;;;;;;3.04;100.00;102897.77;5056125;56;1138753;-68
2023/02/05 13:45:27;;;;;;;12.73;5.45;;;;;;;2.92;100.00;102901.31;4920442;58;1138737;-66
2023/02/05 13:51:08;;;;;;;9.00;4.17;;;;;;;3.03;100.00;102882.52;5042056;57;1138734;-70
2023/02/05 13:56:22;;;;;;;5.90;3.80;;;;;;;3.13;100.00;102902.46;4957733;57;1136689;-68
2023/02/05 14:01:33;;;;;;;7.60;3.77;;;;;;;3.04;99.43;102910.83;4902441;58;1136894;-68
2023/02/05 14:06:42;;;;;;;6.63;3.30;;;;;;;3.10;99.09;102918.17;4965913;57;1134579;-69
2023/02/05 14:12:00;;;;;;;7.12;3.80;;;;;;;2.93;98.99;102920.48;4886050;58;1141217;-68
2023/02/05 14:17:34;;;;;;;8.43;4.80;;;;;;;2.60;99.91;102911.16;4904939;58;1134779;-66
2023/02/05 14:22:43;;;;;;;7.20;3.50;;;;;;;2.70;99.64;102918.91;5003135;57;1134663;-66
2023/02/05 14:27:54;;;;;;;6.90;4.17;;;;;;;2.48;98.41;102927.31;5070327;56;1144169;-68
2023/02/05 14:33:01;;;;;;;10.87;4.10;;;;;;;2.48;98.41;102927.31;5141451;56;1134844;-69
2023/02/05 14:38:28;;;;;;;8.43;4.67;;;;;;;2.19;100.00;102924.41;5115582;55;1136702;-69
2023/02/05 14:43:38;;;;;;;18.83;8.23;;;;;;;1.87;100.00;102930.63;5171295;55;1136700;-70
2023/02/05 14:48:46;;;;;;;24.57;11.77;;;;;;;1.61;100.00;102933.31;5200630;55;1138800;-67
2023/02/05 14:54:01;;;;;;;30.70;11.80;;;;;;;1.43;100.00;102924.20;5151578;55;1140897;-67
2023/02/05 14:59:29;;;;;;;32.33;15.43;;;;;;;1.30;100.00;102931.17;5129116;55;1140681;-69
2023/02/05 15:04:53;;;;;;;33.13;15.47;;;;;;;1.21;100.00;102924.67;4977072;56;1140812;-70
2023/02/05 15:10:06;;;;;;;33.00;16.90;;;;;;;1.06;100.00;102944.22;5060388;56;1140967;-67
2023/02/05 15:15:32;;;;;;;41.17;17.87;;;;;;;1.02;100.00;102939.87;5062214;56;1140846;-68
2023/02/05 15:26:29;;;;;;;79.60;31.30;;;;;;;1.09;100.00;102953.31;5184590;54;46754;-68
2023/02/05 15:31:45;;;;;;;55.50;24.13;;;;;;;1.05;100.00;102952.91;5059595;56;1136746;-67
2023/02/05 15:37:34;;;;;;;72.33;25.60;;;;;;;1.01;100.00;102958.54;5089967;56;1141037;-66
2023/02/05 15:42:44;;;;;;;60.33;23.93;;;;;;;0.96;100.00;102958.96;5045758;56;1140944;-67
2023/02/05 15:48:15;;;;;;;57.83;22.60;;;;;;;0.78;100.00;102951.55;5100867;56;1141127;-67
2023/02/05 15:53:45;;;;;;;60.28;24.57;;;;;;;0.77;100.00;102957.19;5120591;56;1141058;-68
2023/02/05 15:59:12;;;;;;;66.93;25.93;;;;;;;0.74;100.00;102955.03;5100468;56;1141153;-67
2023/02/05 16:04:33;;;;;;;89.87;31.27;;;;;;;0.69;100.00;102953.71;5041876;56;1140920;-68
2023/02/05 16:09:43;;;;;;;209.50;78.57;;;;;;;0.60;100.00;102946.77;4976312;56;1140971;-69
2023/02/05 16:15:06;;;;;;;94.27;33.87;;;;;;;0.52;100.00;102948.45;4975177;57;1143249;-67
2023/02/05 16:20:26;;;;;;;103.63;36.33;;;;;;;0.43;100.00;102951.05;5024822;57;1140884;-69
2023/02/05 16:26:02;;;;;;;99.27;36.83;;;;;;;0.28;100.00;102964.88;5035700;57;1143145;-67
2023/02/05 16:31:11;;;;;;;96.53;40.20;;;;;;;0.18;100.00;102964.81;5036924;57;1140872;-66
2023/02/05 16:36:24;;;;;;;122.65;48.28;;;;;;;0.16;100.00;102960.89;5005623;56;1141161;-70
2023/02/05 16:41:40;;;;;;;116.03;50.87;;;;;;;0.15;100.00;102965.69;5007187;56;1143057;-67
2023/02/05 16:46:51;;;;;;;147.03;58.23;;;;;;;0.10;100.00;102965.22;5035334;57;1143058;-68
2023/02/05 16:51:56;;;;;;;187.63;67.87;;;;;;;0.04;100.00;102955.64;5030190;57;1142923;-69
2023/02/05 16:57:16;;;;;;;182.63;72.90;;;;;;;0.01;100.00;102956.92;5044483;57;1142887;-68
2023/02/05 17:02:41;;;;;;;229.78;83.20;;;;;;;-0.06;100.00;102975.98;5045271;56;1142996;-68
2023/02/05 17:07:56;;;;;;;253.62;92.15;;;;;;;-0.10;100.00;102976.38;5045728;56;1145314;-69
2023/02/05 17:13:04;;;;;;;205.50;81.87;;;;;;;-0.09;100.00;102981.16;5065373;56;1145039;-65
2023/02/05 17:18:33;;;;;;;212.93;78.53;;;;;;;-0.07;100.00;102976.84;5046074;56;1145093;-68
2023/02/05 17:23:38;;;;;;;185.07;71.30;;;;;;;-0.10;100.00;102975.08;4823787;59;1145115;-69
2023/02/05 17:28:52;;;;;;;159.50;62.62;;;;;;;-0.20;100.00;102985.44;5011036;57;1145065;-68
2023/02/05 17:33:59;;;;;;;68.87;28.62;;;;;;;-0.43;100.00;102983.53;5030222;57;1145194;-68
2023/02/05 17:39:05;;;;;;;84.60;28.67;;;;;;;-0.65;100.00;102978.17;4947894;57;1143233;-70
2023/02/05 17:44:14;;;;;;;450.43;133.47;;;;;;;-0.86;100.00;102980.16;5008582;57;1143058;-67
2023/02/05 17:49:20;;;;;;;315.20;98.30;;;;;;;-0.88;100.00;102974.07;4949057;57;1147199;-66
2023/02/05 17:54:27;;;;;;;180.47;61.23;;;;;;;-0.86;100.00;102972.36;4803240;58;1145327;-68
2023/02/05 17:59:34;;;;;;;170.23;58.57;;;;;;;-0.83;100.00;102967.20;4792420;59;1145583;-67
2023/02/05 18:04:42;;;;;;;178.72;65.87;;;;;;;-0.73;100.00;102982.00;4955048;57;1145183;-69
2023/02/05 18:09:47;;;;;;;196.87;67.20;;;;;;;-0.65;100.00;102979.05;4980889;57;1145139;-68
2023/02/05 18:14:53;;;;;;;275.50;105.27;;;;;;;-0.67;100.00;102990.28;5036780;56;1144942;-68
2023/02/05 18:19:59;;;;;;;303.40;110.67;;;;;;;-0.98;100.00;102993.91;4973926;56;1147237;-67
2023/02/05 18:25:07;;;;;;;256.83;73.70;;;;;;;-1.22;100.00;102995.81;5072319;56;1147227;-69
2023/02/05 18:30:13;;;;;;;287.40;75.13;;;;;;;-1.38;100.00;103000.42;4972817;56;1145451;-70
2023/02/05 18:35:19;;;;;;;185.10;57.55;;;;;;;-1.52;100.00;103000.23;5011664;57;1145157;-69
2023/02/05 18:40:25;;;;;;;248.45;72.90;;;;;;;-1.64;100.00;103002.69;5049521;56;1145158;-70
2023/02/05 18:45:31;;;;;;;159.50;48.97;;;;;;;-1.67;100.00;103005.66;5036670;57;1145071;-68
2023/02/05 18:50:36;;;;;;;188.76;58.82;;;;;;;-1.74;100.00;103018.12;5036708;57;1145369;-69
2023/02/05 18:55:42;;;;;;;226.87;65.17;;;;;;;-1.66;100.00;103026.44;5056152;57;1145095;-66
2023/02/05 19:00:48;;;;;;;161.07;49.38;;;;;;;-1.74;100.00;103030.67;5036126;57;1145177;-67
2023/02/05 19:05:55;;;;;;;197.90;60.93;;;;;;;-1.64;100.00;103040.30;5036388;56;1145214;-68
2023/02/05 19:11:06;;;;;;;135.17;46.40;;;;;;;-1.77;100.00;103035.81;5055957;57;1145474;-66
2023/02/05 19:16:16;;;;;;;109.17;37.57;;;;;;;-1.79;100.00;103040.10;5016371;56;1185313;-67
2023/02/05 19:21:25;;;;;;;115.00;42.97;;;;;;;-1.75;100.00;103041.89;5001423;57;1145248;-67
2023/02/05 19:26:35;;;;;;;110.85;41.83;;;;;;;-1.73;100.00;103045.81;5030217;56;1145250;-69
2023/02/05 19:31:42;;;;;;;323.33;129.73;;;;;;;-1.66;100.00;103060.59;5013617;56;1145066;-68
2023/02/05 19:36:48;;;;;;;299.10;119.33;;;;;;;-1.56;100.00;103045.19;5034000;56;1147244;-68
2023/02/05 19:41:55;;;;;;;197.77;83.77;;;;;;;-1.49;100.00;103058.66;5036253;57;1147337;-69
2023/02/05 19:47:00;;;;;;;199.63;76.73;;;;;;;-1.55;100.00;103049.52;5056374;57;1145212;-66
2023/02/05 19:52:08;;;;;;;221.63;81.03;;;;;;;-1.48;100.00;103062.13;5036459;57;1144950;-69
2023/02/05 19:57:14;;;;;;;144.27;54.30;;;;;;;-1.60;100.00;103052.47;5017433;57;1145120;-69
2023/02/05 20:02:20;;;;;;;178.06;66.78;;;;;;;-1.74;100.00;103050.55;5036836;56;1145312;-69
2023/02/05 20:07:27;;;;;;;74.42;28.80;;;;;;;-1.88;100.00;103054.25;5027765;56;1145483;-67
2023/02/05 20:12:33;;;;;;;79.20;32.33;;;;;;;-1.97;100.00;103069.66;4966797;57;1143284;-68
2023/02/05 20:17:39;;;;;;;76.33;31.20;;;;;;;-1.96;100.00;103073.58;5037229;57;1143243;-67
2023/02/05 20:22:49;;;;;;;77.07;33.30;;;;;;;-1.80;100.00;103072.95;4902752;58;1142952;-69
2023/02/05 20:27:54;;;;;;;161.83;56.10;;;;;;;-1.64;100.00;103068.84;5004554;57;1143070;-67
2023/02/05 20:33:00;;;;;;;299.70;108.07;;;;;;;-1.59;100.00;103058.53;5036437;57;1145369;-68
2023/02/05 20:38:06;;;;;;;157.60;58.60;;;;;;;-1.61;100.00;103062.41;4901131;58;1147313;-70
2023/02/05 20:43:13;;;;;;;134.22;52.88;;;;;;;-1.60;100.00;103063.28;5037343;56;1145193;-70
2023/02/05 20:48:18;;;;;;;157.67;58.57;;;;;;;-1.60;100.00;103058.09;4869006;58;1145266;-70
2023/02/05 20:53:25;;;;;;;122.73;45.07;;;;;;;-1.54;100.00;103058.18;5041280;56;1145129;-67
2023/02/05 20:58:32;;;;;;;104.10;41.45;;;;;;;-1.61;100.00;103053.75;4880898;59;1145064;-68
2023/02/05 21:03:40;;;;;;;109.87;45.90;;;;;;;-1.67;100.00;103061.44;5036648;57;1145273;-66
2023/02/05 21:08:50;;;;;;;114.47;46.37;;;;;;;-1.67;100.00;103067.50;4988803;56;1145154;-68
2023/02/05 21:13:57;;;;;;;111.97;49.57;;;;;;;-1.67;100.00;103075.70;4996076;56;1144999;-69
2023/02/05 21:19:05;;;;;;;138.73;50.00;;;;;;;-1.67;100.00;103078.30;4973186;56;1145087;-68
2023/02/05 21:24:14;;;;;;;154.50;53.07;;;;;;;-1.71;100.00;103096.00;4983789;57;1144958;-67
2023/02/05 21:29:21;;;;;;;362.07;147.07;;;;;;;-1.85;100.00;103089.31;5020562;56;1145181;-70
2023/02/05 21:34:28;;;;;;;827.93;304.87;;;;;;;-1.91;100.00;103087.48;5012106;57;1147161;-68
2023/02/05 21:39:36;;;;;;;204.03;81.53;;;;;;;-2.01;100.00;103089.94;4957320;57;1147220;-69
2023/02/05 21:44:43;;;;;;;94.40;39.70;;;;;;;-2.14;100.00;103068.97;4984445;57;1145157;-70
2023/02/05 21:49:48;;;;;;;114.80;51.67;;;;;;;-2.43;100.00;103058.56;4802064;60;1142951;-69
2023/02/05 21:54:54;;;;;;;115.60;44.10;;;;;;;-2.57;100.00;103059.64;4943677;57;1145183;-68
2023/02/05 22:00:02;;;;;;;124.27;46.13;;;;;;;-2.60;100.00;103074.28;4895263;58;1145069;-68
2023/02/05 22:05:09;;;;;;;161.27;53.40;;;;;;;-2.72;100.00;103080.09;4888642;58;1145030;-69
2023/02/05 22:10:16;;;;;;;206.70;63.60;;;;;;;-2.84;100.00;103091.11;4966121;56;1145054;-69
2023/02/05 22:15:22;;;;;;;172.35;53.73;;;;;;;-2.93;100.00;103087.06;4974762;58;1145261;-67
2023/02/05 22:20:27;;;;;;;140.30;48.57;;;;;;;-2.98;100.00;103105.92;4955122;58;1145110;-67
2023/02/05 22:25:33;;;;;;;132.40;44.77;;;;;;;-2.96;100.00;103099.94;4945442;57;1145208;-68
2023/02/05 22:30:39;;;;;;;488.45;133.15;;;;;;;-2.91;100.00;103096.16;4801892;59;1145306;-68
2023/02/05 22:35:45;;;;;;;312.88;87.80;;;;;;;-2.69;100.00;103122.89;4995967;57;1147287;-69
2023/02/05 22:40:51;;;;;;;499.77;141.63;;;;;;;-2.52;100.00;103111.55;5024744;56;1145181;-68
2023/02/05 22:46:05;;;;;;;445.23;120.90;;;;;;;-2.41;100.00;103125.97;5039570;57;1147279;-67
2023/02/05 22:51:18;;;;;;;204.85;59.48;;;;;;;-2.41;100.00;103120.79;5042216;57;1147281;-69
2023/02/05 22:56:25;;;;;;;422.73;120.80;;;;;;;-2.43;100.00;103119.47;5039956;57;1145337;-66
2023/02/05 23:01:34;;;;;;;199.03;60.57;;;;;;;-2.41;100.00;103116.91;5068549;56;1147163;-67
2023/02/05 23:06:44;;;;;;;88.95;36.38;;;;;;;-2.53;100.00;103115.84;5026964;56;1145287;-68
2023/02/05 23:11:49;;;;;;;321.30;102.83;;;;;;;-2.58;100.00;103123.95;5081774;56;1143135;-66